sensor_id;sensor_type;location;lat;lon;timestamp;pressure;altitude;pressure_sealevel;temperature;humidity
50282;BME280;36176;51.506;10.272;2023-04-19T00:00:15;100494.06;;;10.01;70.01
50282;BME280;36176;51.506;10.272;2023-04-19T00:02:42;100504.69;;;10.00;69.97
50282;BME280;36176;51.506;10.272;2023-04-19T00:05:10;100505.66;;;9.96;69.65
50282;BME280;36176;51.506;10.272;2023-04-19T00:07:39;100504.91;;;9.92;70.14
50282;BME280;36176;51.506;10.272;2023-04-19T00:10:07;100501.47;;;9.89;70.04
50282;BME280;36176;51.506;10.272;2023-04-19T00:12:34;100500.59;;;9.88;69.90
50282;BME280;36176;51.506;10.272;2023-04-19T00:15:01;100489.19;;;9.86;70.38
50282;BME280;36176;51.506;10.272;2023-04-19T00:17:28;100487.69;;;9.76;70.12
50282;BME280;36176;51.506;10.272;2023-04-19T00:19:55;100486.16;;;9.67;68.83
50282;BME280;36176;51.506;10.272;2023-04-19T00:22:22;100489.81;;;9.63;68.25
50282;BME280;36176;51.506;10.272;2023-04-19T00:24:49;100482.78;;;9.62;68.70
50282;BME280;36176;51.506;10.272;2023-04-19T00:27:16;100481.88;;;9.63;68.73
50282;BME280;36176;51.506;10.272;2023-04-19T00:29:43;100481.97;;;9.60;68.65
50282;BME280;36176;51.506;10.272;2023-04-19T00:32:10;100481.19;;;9.56;68.97
50282;BME280;36176;51.506;10.272;2023-04-19T00:34:37;100478.56;;;9.55;68.84
50282;BME280;36176;51.506;10.272;2023-04-19T00:37:04;100479.56;;;9.51;69.15
50282;BME280;36176;51.506;10.272;2023-04-19T00:39:31;100470.84;;;9.47;69.26
50282;BME280;36176;51.506;10.272;2023-04-19T00:41:58;100467.44;;;9.42;69.56
50282;BME280;36176;51.506;10.272;2023-04-19T00:44:26;100473.69;;;9.40;69.78
50282;BME280;36176;51.506;10.272;2023-04-19T00:46:55;100475.59;;;9.34;69.72
50282;BME280;36176;51.506;10.272;2023-04-19T00:49:22;100476.44;;;9.36;70.34
50282;BME280;36176;51.506;10.272;2023-04-19T00:51:50;100480.78;;;9.37;70.63
50282;BME280;36176;51.506;10.272;2023-04-19T00:54:18;100468.50;;;9.36;70.43
50282;BME280;36176;51.506;10.272;2023-04-19T00:56:45;100469.38;;;9.35;70.79
50282;BME280;36176;51.506;10.272;2023-04-19T00:59:13;100468.56;;;9.33;71.23
50282;BME280;36176;51.506;10.272;2023-04-19T01:01:41;100473.91;;;9.32;71.54
50282;BME280;36176;51.506;10.272;2023-04-19T01:04:08;100468.72;;;9.27;72.12
50282;BME280;36176;51.506;10.272;2023-04-19T01:06:37;100472.38;;;9.22;72.27
50282;BME280;36176;51.506;10.272;2023-04-19T01:09:05;100475.28;;;9.12;72.98
50282;BME280;36176;51.506;10.272;2023-04-19T01:11:33;100477.22;;;9.04;73.32
50282;BME280;36176;51.506;10.272;2023-04-19T01:14:00;100481.00;;;8.96;72.17
50282;BME280;36176;51.506;10.272;2023-04-19T01:16:27;100481.03;;;8.92;71.62
50282;BME280;36176;51.506;10.272;2023-04-19T01:18:54;100476.69;;;8.91;72.16
50282;BME280;36176;51.506;10.272;2023-04-19T01:21:21;100473.19;;;8.91;72.73
50282;BME280;36176;51.506;10.272;2023-04-19T01:23:48;100480.25;;;8.89;72.63
50282;BME280;36176;51.506;10.272;2023-04-19T01:26:15;100476.72;;;8.90;72.28
50282;BME280;36176;51.506;10.272;2023-04-19T01:28:42;100466.97;;;8.92;71.81
50282;BME280;36176;51.506;10.272;2023-04-19T01:31:09;100470.53;;;8.91;71.85
50282;BME280;36176;51.506;10.272;2023-04-19T01:33:36;100471.31;;;8.94;71.87
50282;BME280;36176;51.506;10.272;2023-04-19T01:36:03;100462.53;;;8.92;72.26
50282;BME280;36176;51.506;10.272;2023-04-19T01:38:30;100459.13;;;8.89;71.87
50282;BME280;36176;51.506;10.272;2023-04-19T01:40:57;100461.91;;;8.83;71.45
50282;BME280;36176;51.506;10.272;2023-04-19T01:43:24;100456.72;;;8.78;71.61
50282;BME280;36176;51.506;10.272;2023-04-19T01:45:51;100446.31;;;8.72;71.62
50282;BME280;36176;51.506;10.272;2023-04-19T01:48:18;100449.97;;;8.66;71.68
50282;BME280;36176;51.506;10.272;2023-04-19T01:50:45;100446.56;;;8.61;71.03
50282;BME280;36176;51.506;10.272;2023-04-19T01:53:12;100443.25;;;8.53;71.03
50282;BME280;36176;51.506;10.272;2023-04-19T01:55:39;100439.88;;;8.46;71.88
50282;BME280;36176;51.506;10.272;2023-04-19T01:58:06;100439.97;;;8.42;72.07
50282;BME280;36176;51.506;10.272;2023-04-19T02:00:34;100435.69;;;8.36;72.57
50282;BME280;36176;51.506;10.272;2023-04-19T02:03:01;100439.31;;;8.30;73.06
50282;BME280;36176;51.506;10.272;2023-04-19T02:05:28;100432.41;;;8.25;73.77
50282;BME280;36176;51.506;10.272;2023-04-19T02:07:55;100436.91;;;8.20;73.40
50282;BME280;36176;51.506;10.272;2023-04-19T02:10:22;100437.03;;;8.14;74.11
50282;BME280;36176;51.506;10.272;2023-04-19T02:12:49;100438.03;;;8.09;75.16
50282;BME280;36176;51.506;10.272;2023-04-19T02:15:16;100441.59;;;8.07;75.16
50282;BME280;36176;51.506;10.272;2023-04-19T02:17:43;100442.56;;;8.03;75.34
50282;BME280;36176;51.506;10.272;2023-04-19T02:20:12;100437.34;;;8.00;75.43
50282;BME280;36176;51.506;10.272;2023-04-19T02:22:39;100437.38;;;7.98;74.56
50282;BME280;36176;51.506;10.272;2023-04-19T02:25:06;100431.34;;;7.93;75.37
50282;BME280;36176;51.506;10.272;2023-04-19T02:27:33;100427.94;;;7.88;75.69
50282;BME280;36176;51.506;10.272;2023-04-19T02:30:00;100432.44;;;7.83;75.81
50282;BME280;36176;51.506;10.272;2023-04-19T02:32:27;100431.69;;;7.76;74.32
50282;BME280;36176;51.506;10.272;2023-04-19T02:34:54;100429.97;;;7.74;74.36
50282;BME280;36176;51.506;10.272;2023-04-19T02:37:21;100429.09;;;7.73;74.66
50282;BME280;36176;51.506;10.272;2023-04-19T02:39:48;100434.38;;;7.73;74.37
50282;BME280;36176;51.506;10.272;2023-04-19T02:42:15;100436.22;;;7.68;74.79
50282;BME280;36176;51.506;10.272;2023-04-19T02:44:42;100435.44;;;7.63;75.28
50282;BME280;36176;51.506;10.272;2023-04-19T02:47:09;100431.25;;;7.54;74.92
50282;BME280;36176;51.506;10.272;2023-04-19T02:49:36;100449.78;;;7.50;75.42
50282;BME280;36176;51.506;10.272;2023-04-19T02:52:07;100444.69;;;7.40;74.44
50282;BME280;36176;51.506;10.272;2023-04-19T02:54:34;100441.34;;;7.31;74.23
50282;BME280;36176;51.506;10.272;2023-04-19T02:57:01;100439.72;;;7.23;74.03
50282;BME280;36176;51.506;10.272;2023-04-19T02:59:28;100441.56;;;7.18;73.63
50282;BME280;36176;51.506;10.272;2023-04-19T03:01:55;100433.84;;;7.08;72.24
50282;BME280;36176;51.506;10.272;2023-04-19T03:04:22;100438.34;;;7.01;72.51
50282;BME280;36176;51.506;10.272;2023-04-19T03:06:51;100441.97;;;6.94;72.94
50282;BME280;36176;51.506;10.272;2023-04-19T03:09:18;100438.53;;;6.90;72.04
50282;BME280;36176;51.506;10.272;2023-04-19T03:11:45;100438.59;;;6.87;72.14
50282;BME280;36176;51.506;10.272;2023-04-19T03:14:11;100437.78;;;6.82;73.16
50282;BME280;36176;51.506;10.272;2023-04-19T03:16:39;100425.53;;;6.79;73.31
50282;BME280;36176;51.506;10.272;2023-04-19T03:19:06;100422.88;;;6.82;73.10
50282;BME280;36176;51.506;10.272;2023-04-19T03:21:33;100427.22;;;6.85;73.00
50282;BME280;36176;51.506;10.272;2023-04-19T03:24:00;100438.59;;;6.87;73.22
50282;BME280;36176;51.506;10.272;2023-04-19T03:26:27;100443.03;;;6.85;73.86
50282;BME280;36176;51.506;10.272;2023-04-19T03:28:54;100443.09;;;6.79;74.28
50282;BME280;36176;51.506;10.272;2023-04-19T03:31:21;100440.59;;;6.71;74.49
50282;BME280;36176;51.506;10.272;2023-04-19T03:33:48;100432.84;;;6.64;74.27
50282;BME280;36176;51.506;10.272;2023-04-19T03:36:16;100435.50;;;6.60;74.19
50282;BME280;36176;51.506;10.272;2023-04-19T03:38:43;100425.84;;;6.61;73.81
50282;BME280;36176;51.506;10.272;2023-04-19T03:41:20;100433.75;;;6.61;73.27
50282;BME280;36176;51.506;10.272;2023-04-19T03:43:47;100426.72;;;6.60;73.71
50282;BME280;36176;51.506;10.272;2023-04-19T03:46:14;100440.00;;;6.54;73.14
50282;BME280;36176;51.506;10.272;2023-04-19T03:48:41;100424.31;;;6.46;73.06
50282;BME280;36176;51.506;10.272;2023-04-19T03:51:08;100420.94;;;6.38;72.29
50282;BME280;36176;51.506;10.272;2023-04-19T03:53:35;100430.72;;;6.28;72.42
50282;BME280;36176;51.506;10.272;2023-04-19T03:56:02;100429.94;;;6.20;71.79
50282;BME280;36176;51.506;10.272;2023-04-19T03:58:29;100426.63;;;6.07;71.01
50282;BME280;36176;51.506;10.272;2023-04-19T04:00:57;100425.94;;;5.91;71.17
50282;BME280;36176;51.506;10.272;2023-04-19T04:03:24;100423.38;;;5.85;70.09
50282;BME280;36176;51.506;10.272;2023-04-19T04:05:52;100430.50;;;5.74;70.29
50282;BME280;36176;51.506;10.272;2023-04-19T04:08:19;100438.56;;;5.62;70.83
50282;BME280;36176;51.506;10.272;2023-04-19T04:10:46;100437.78;;;5.53;70.60
50282;BME280;36176;51.506;10.272;2023-04-19T04:13:13;100426.44;;;5.48;70.21
50282;BME280;36176;51.506;10.272;2023-04-19T04:15:39;100437.06;;;5.39;70.63
50282;BME280;36176;51.506;10.272;2023-04-19T04:18:06;100443.28;;;5.29;70.69
50282;BME280;36176;51.506;10.272;2023-04-19T04:20:35;100451.22;;;5.24;70.89
50282;BME280;36176;51.506;10.272;2023-04-19T04:23:02;100451.25;;;5.21;71.07
50282;BME280;36176;51.506;10.272;2023-04-19T04:25:29;100446.91;;;5.17;70.95
50282;BME280;36176;51.506;10.272;2023-04-19T04:27:58;100460.06;;;5.14;71.07
50282;BME280;36176;51.506;10.272;2023-04-19T04:30:25;100453.97;;;5.10;71.50
50282;BME280;36176;51.506;10.272;2023-04-19T04:32:54;100455.75;;;5.10;71.46
50282;BME280;36176;51.506;10.272;2023-04-19T04:35:23;100447.88;;;5.10;71.72
50282;BME280;36176;51.506;10.272;2023-04-19T04:37:50;100456.59;;;5.10;71.54
50282;BME280;36176;51.506;10.272;2023-04-19T04:40:19;100453.09;;;5.13;71.58
50282;BME280;36176;51.506;10.272;2023-04-19T04:42:47;100452.06;;;5.26;71.03
50282;BME280;36176;51.506;10.272;2023-04-19T04:45:14;100452.75;;;5.45;70.84
50282;BME280;36176;51.506;10.272;2023-04-19T04:47:43;100452.59;;;5.61;70.19
50282;BME280;36176;51.506;10.272;2023-04-19T04:50:13;100458.72;;;5.63;70.74
50282;BME280;36176;51.506;10.272;2023-04-19T04:52:40;100457.75;;;5.68;70.51
50282;BME280;36176;51.506;10.272;2023-04-19T04:55:07;100455.72;;;5.95;70.20
50282;BME280;36176;51.506;10.272;2023-04-19T04:57:35;100462.19;;;6.37;69.53
50282;BME280;36176;51.506;10.272;2023-04-19T05:00:03;100457.47;;;6.59;68.01
50282;BME280;36176;51.506;10.272;2023-04-19T05:02:31;100455.63;;;6.65;67.34
50282;BME280;36176;51.506;10.272;2023-04-19T05:04:58;100460.03;;;6.66;67.66
50282;BME280;36176;51.506;10.272;2023-04-19T05:07:25;100461.72;;;6.68;68.22
50282;BME280;36176;51.506;10.272;2023-04-19T05:09:52;100456.25;;;6.80;67.61
50282;BME280;36176;51.506;10.272;2023-04-19T05:12:19;100456.63;;;7.12;66.45
50282;BME280;36176;51.506;10.272;2023-04-19T05:14:46;100462.47;;;8.18;63.96
50282;BME280;36176;51.506;10.272;2023-04-19T05:17:12;100465.56;;;9.13;60.00
50282;BME280;36176;51.506;10.272;2023-04-19T05:19:39;100464.69;;;10.09;58.84
50282;BME280;36176;51.506;10.272;2023-04-19T05:22:06;100468.34;;;10.93;55.75
50282;BME280;36176;51.506;10.272;2023-04-19T05:24:33;100472.66;;;11.74;53.20
50282;BME280;36176;51.506;10.272;2023-04-19T05:27:00;100467.03;;;12.30;52.80
50282;BME280;36176;51.506;10.272;2023-04-19T05:29:27;100459.75;;;12.35;50.04
50282;BME280;36176;51.506;10.272;2023-04-19T05:31:54;100457.56;;;12.23;51.73
50282;BME280;36176;51.506;10.272;2023-04-19T05:34:23;100462.44;;;12.11;50.77
50282;BME280;36176;51.506;10.272;2023-04-19T05:36:50;100449.31;;;12.07;50.73
50282;BME280;36176;51.506;10.272;2023-04-19T05:39:19;100458.38;;;11.76;50.43
50282;BME280;36176;51.506;10.272;2023-04-19T05:41:47;100451.69;;;11.41;49.61
50282;BME280;36176;51.506;10.272;2023-04-19T05:44:13;100445.16;;;10.99;48.91
50282;BME280;36176;51.506;10.272;2023-04-19T05:46:41;100447.78;;;10.73;47.46
50282;BME280;36176;51.506;10.272;2023-04-19T05:49:08;100452.44;;;10.93;49.29
50282;BME280;36176;51.506;10.272;2023-04-19T05:51:35;100454.41;;;11.13;47.12
50282;BME280;36176;51.506;10.272;2023-04-19T05:54:02;100449.84;;;11.43;46.23
50282;BME280;36176;51.506;10.272;2023-04-19T05:56:29;100452.06;;;11.55;44.27
50282;BME280;36176;51.506;10.272;2023-04-19T05:58:56;100446.25;;;11.69;44.44
50282;BME280;36176;51.506;10.272;2023-04-19T06:01:24;100443.19;;;12.28;43.99
50282;BME280;36176;51.506;10.272;2023-04-19T06:03:51;100447.84;;;12.45;43.54
50282;BME280;36176;51.506;10.272;2023-04-19T06:06:21;100447.94;;;13.08;44.78
50282;BME280;36176;51.506;10.272;2023-04-19T06:08:49;100453.66;;;14.01;41.51
50282;BME280;36176;51.506;10.272;2023-04-19T06:11:19;100452.53;;;14.64;39.35
50282;BME280;36176;51.506;10.272;2023-04-19T06:13:57;100452.84;;;15.12;37.75
50282;BME280;36176;51.506;10.272;2023-04-19T06:16:24;100459.03;;;15.64;36.87
50282;BME280;36176;51.506;10.272;2023-04-19T06:18:51;100459.31;;;16.42;36.59
50282;BME280;36176;51.506;10.272;2023-04-19T06:21:18;100455.59;;;16.92;35.07
50282;BME280;36176;51.506;10.272;2023-04-19T06:23:45;100450.47;;;16.08;34.80
50282;BME280;36176;51.506;10.272;2023-04-19T06:26:11;100452.91;;;14.56;36.06
50282;BME280;36176;51.506;10.272;2023-04-19T06:28:38;100454.69;;;13.78;40.25
50282;BME280;36176;51.506;10.272;2023-04-19T06:31:06;100455.16;;;13.27;37.43
50282;BME280;36176;51.506;10.272;2023-04-19T06:33:33;100466.84;;;13.23;37.59
50282;BME280;36176;51.506;10.272;2023-04-19T06:36:00;100466.78;;;12.82;36.89
50282;BME280;36176;51.506;10.272;2023-04-19T06:38:28;100456.31;;;13.42;37.79
50282;BME280;36176;51.506;10.272;2023-04-19T06:40:55;100454.94;;;13.93;37.75
50282;BME280;36176;51.506;10.272;2023-04-19T06:43:22;100459.59;;;12.84;37.37
50282;BME280;36176;51.506;10.272;2023-04-19T06:45:57;100462.84;;;11.76;39.63
50282;BME280;36176;51.506;10.272;2023-04-19T06:48:24;100462.44;;;13.22;38.42
50282;BME280;36176;51.506;10.272;2023-04-19T06:50:52;100464.78;;;14.49;34.94
50282;BME280;36176;51.506;10.272;2023-04-19T06:53:19;100460.94;;;15.80;34.80
50282;BME280;36176;51.506;10.272;2023-04-19T06:55:46;100456.72;;;16.25;31.90
50282;BME280;36176;51.506;10.272;2023-04-19T06:58:13;100452.50;;;16.68;31.75
50282;BME280;36176;51.506;10.272;2023-04-19T07:00:40;100446.16;;;17.17;31.89
50282;BME280;36176;51.506;10.272;2023-04-19T07:03:07;100449.34;;;17.38;31.99
50282;BME280;36176;51.506;10.272;2023-04-19T07:05:35;100453.88;;;17.82;30.49
50282;BME280;36176;51.506;10.272;2023-04-19T07:08:01;100443.56;;;17.46;31.04
50282;BME280;36176;51.506;10.272;2023-04-19T07:10:28;100443.53;;;17.31;29.39
50282;BME280;36176;51.506;10.272;2023-04-19T07:12:55;100441.09;;;16.96;30.71
50282;BME280;36176;51.506;10.272;2023-04-19T07:15:22;100437.47;;;17.28;29.86
50282;BME280;36176;51.506;10.272;2023-04-19T07:17:49;100425.63;;;17.91;30.71
50282;BME280;36176;51.506;10.272;2023-04-19T07:20:16;100419.28;;;18.35;28.39
50282;BME280;36176;51.506;10.272;2023-04-19T07:22:43;100429.28;;;19.27;28.68
50282;BME280;36176;51.506;10.272;2023-04-19T07:25:10;100425.72;;;19.79;27.98
50282;BME280;36176;51.506;10.272;2023-04-19T07:27:37;100417.06;;;20.12;26.41
50282;BME280;36176;51.506;10.272;2023-04-19T07:30:04;100416.53;;;20.20;27.71
50282;BME280;36176;51.506;10.272;2023-04-19T07:32:31;100419.97;;;20.22;27.12
50282;BME280;36176;51.506;10.272;2023-04-19T07:34:58;100417.69;;;20.16;27.20
50282;BME280;36176;51.506;10.272;2023-04-19T07:37:25;100423.47;;;19.73;26.41
50282;BME280;36176;51.506;10.272;2023-04-19T07:39:51;100409.47;;;20.43;27.28
50282;BME280;36176;51.506;10.272;2023-04-19T07:42:18;100419.13;;;20.58;24.70
50282;BME280;36176;51.506;10.272;2023-04-19T07:44:45;100405.13;;;20.16;25.49
50282;BME280;36176;51.506;10.272;2023-04-19T07:47:12;100406.13;;;20.03;26.99
50282;BME280;36176;51.506;10.272;2023-04-19T07:49:39;100406.66;;;20.57;25.19
50282;BME280;36176;51.506;10.272;2023-04-19T07:52:06;100401.16;;;21.18;24.73
50282;BME280;36176;51.506;10.272;2023-04-19T07:54:33;100395.44;;;21.34;25.63
50282;BME280;36176;51.506;10.272;2023-04-19T07:57:01;100395.75;;;21.18;25.05
50282;BME280;36176;51.506;10.272;2023-04-19T07:59:28;100388.19;;;20.27;24.38
50282;BME280;36176;51.506;10.272;2023-04-19T08:01:56;100395.38;;;19.51;24.57
50282;BME280;36176;51.506;10.272;2023-04-19T08:04:23;100404.44;;;19.76;24.69
50282;BME280;36176;51.506;10.272;2023-04-19T08:06:50;100390.78;;;20.29;26.45
50282;BME280;36176;51.506;10.272;2023-04-19T08:09:18;100400.41;;;20.57;24.72
50282;BME280;36176;51.506;10.272;2023-04-19T08:11:45;100386.63;;;20.49;23.63
50282;BME280;36176;51.506;10.272;2023-04-19T08:14:12;100390.78;;;20.16;22.69
50282;BME280;36176;51.506;10.272;2023-04-19T08:16:56;100390.75;;;19.92;23.75
50282;BME280;36176;51.506;10.272;2023-04-19T08:19:43;100392.16;;;19.72;25.05
50282;BME280;36176;51.506;10.272;2023-04-19T08:22:10;100384.63;;;19.77;24.26
50282;BME280;36176;51.506;10.272;2023-04-19T08:24:36;100384.06;;;19.85;24.57
50282;BME280;36176;51.506;10.272;2023-04-19T08:27:03;100386.69;;;20.23;26.16
50282;BME280;36176;51.506;10.272;2023-04-19T08:29:30;100384.59;;;20.76;24.44
50282;BME280;36176;51.506;10.272;2023-04-19T08:31:59;100389.97;;;21.47;22.70
50282;BME280;36176;51.506;10.272;2023-04-19T08:34:27;100381.88;;;21.36;23.73
50282;BME280;36176;51.506;10.272;2023-04-19T08:36:54;100382.63;;;21.02;21.92
50282;BME280;36176;51.506;10.272;2023-04-19T08:39:30;100369.09;;;21.38;24.26
50282;BME280;36176;51.506;10.272;2023-04-19T08:42:03;100375.19;;;21.64;21.30
50282;BME280;36176;51.506;10.272;2023-04-19T08:44:35;100369.78;;;21.75;21.78
50282;BME280;36176;51.506;10.272;2023-04-19T08:47:10;100368.19;;;22.06;22.14
50282;BME280;36176;51.506;10.272;2023-04-19T08:49:46;100361.28;;;22.36;22.85
50282;BME280;36176;51.506;10.272;2023-04-19T08:52:14;100352.69;;;22.42;21.42
50282;BME280;36176;51.506;10.272;2023-04-19T08:54:41;100352.47;;;22.66;20.74
50282;BME280;36176;51.506;10.272;2023-04-19T08:57:09;100352.28;;;22.58;20.11
50282;BME280;36176;51.506;10.272;2023-04-19T08:59:38;100350.16;;;22.29;18.66
50282;BME280;36176;51.506;10.272;2023-04-19T09:02:04;100352.75;;;21.41;19.42
50282;BME280;36176;51.506;10.272;2023-04-19T09:04:32;100351.84;;;21.40;20.57
50282;BME280;36176;51.506;10.272;2023-04-19T09:07:02;100346.97;;;21.57;20.67
50282;BME280;36176;51.506;10.272;2023-04-19T09:09:29;100343.03;;;21.50;19.85
50282;BME280;36176;51.506;10.272;2023-04-19T09:12:14;100343.53;;;21.55;20.36
50282;BME280;36176;51.506;10.272;2023-04-19T09:14:45;100344.66;;;21.52;21.00
50282;BME280;36176;51.506;10.272;2023-04-19T09:17:27;100338.84;;;21.34;20.42
50282;BME280;36176;51.506;10.272;2023-04-19T09:19:54;100334.38;;;21.11;23.00
50282;BME280;36176;51.506;10.272;2023-04-19T09:22:20;100341.25;;;21.26;23.35
50282;BME280;36176;51.506;10.272;2023-04-19T09:24:47;100330.09;;;21.08;21.82
50282;BME280;36176;51.506;10.272;2023-04-19T09:27:27;100330.00;;;21.10;22.85
50282;BME280;36176;51.506;10.272;2023-04-19T09:29:54;100318.38;;;21.32;22.49
50282;BME280;36176;51.506;10.272;2023-04-19T09:32:22;100316.50;;;21.10;22.79
50282;BME280;36176;51.506;10.272;2023-04-19T09:34:50;100312.00;;;21.33;22.84
50282;BME280;36176;51.506;10.272;2023-04-19T09:37:17;100306.47;;;21.23;22.17
50282;BME280;36176;51.506;10.272;2023-04-19T09:40:25;100316.97;;;21.03;22.61
50282;BME280;36176;51.506;10.272;2023-04-19T09:42:53;100308.22;;;20.53;21.96
50282;BME280;36176;51.506;10.272;2023-04-19T09:45:23;100313.66;;;20.16;22.92
50282;BME280;36176;51.506;10.272;2023-04-19T09:48:00;100312.34;;;20.22;24.13
50282;BME280;36176;51.506;10.272;2023-04-19T09:50:27;100308.94;;;20.07;22.86
50282;BME280;36176;51.506;10.272;2023-04-19T09:52:54;100305.25;;;20.21;23.63
50282;BME280;36176;51.506;10.272;2023-04-19T09:55:21;100298.81;;;20.83;25.09
50282;BME280;36176;51.506;10.272;2023-04-19T09:57:53;100301.22;;;20.51;24.75
50282;BME280;36176;51.506;10.272;2023-04-19T10:00:21;100292.31;;;20.26;25.38
50282;BME280;36176;51.506;10.272;2023-04-19T10:02:50;100293.59;;;20.45;24.52
50282;BME280;36176;51.506;10.272;2023-04-19T10:05:21;100289.97;;;19.85;24.52
50282;BME280;36176;51.506;10.272;2023-04-19T10:07:49;100297.97;;;19.22;23.92
50282;BME280;36176;51.506;10.272;2023-04-19T10:10:17;100289.06;;;18.56;25.82
50282;BME280;36176;51.506;10.272;2023-04-19T10:12:50;100287.63;;;18.11;27.49
50282;BME280;36176;51.506;10.272;2023-04-19T10:15:21;100278.91;;;17.22;27.54
50282;BME280;36176;51.506;10.272;2023-04-19T10:17:48;100273.16;;;17.00;27.29
50282;BME280;36176;51.506;10.272;2023-04-19T10:20:19;100279.81;;;16.78;29.35
50282;BME280;36176;51.506;10.272;2023-04-19T10:22:47;100276.25;;;16.32;28.28
50282;BME280;36176;51.506;10.272;2023-04-19T10:25:14;100278.34;;;16.27;29.91
50282;BME280;36176;51.506;10.272;2023-04-19T10:27:42;100272.91;;;16.28;29.34
50282;BME280;36176;51.506;10.272;2023-04-19T10:30:18;100271.69;;;16.34;31.32
50282;BME280;36176;51.506;10.272;2023-04-19T10:32:46;100260.03;;;16.35;32.19
50282;BME280;36176;51.506;10.272;2023-04-19T10:35:19;100261.13;;;16.16;29.31
50282;BME280;36176;51.506;10.272;2023-04-19T10:41:06;100246.72;;;16.19;29.25
50282;BME280;36176;51.506;10.272;2023-04-19T10:43:30;100243.78;;;15.92;31.27
50282;BME280;36176;51.506;10.272;2023-04-19T10:45:58;100238.91;;;16.00;32.06
50282;BME280;36176;51.506;10.272;2023-04-19T10:51:16;100244.31;;;16.45;30.12
50282;BME280;36176;51.506;10.272;2023-04-19T10:53:48;100241.94;;;16.40;30.10
50282;BME280;36176;51.506;10.272;2023-04-19T10:56:16;100229.84;;;16.03;30.94
50282;BME280;36176;51.506;10.272;2023-04-19T11:04:05;100214.53;;;16.21;33.24
50282;BME280;36176;51.506;10.272;2023-04-19T11:06:32;100214.88;;;16.45;31.26
50282;BME280;36176;51.506;10.272;2023-04-19T11:08:59;100198.19;;;16.55;30.50
50282;BME280;36176;51.506;10.272;2023-04-19T11:11:28;100200.97;;;16.54;30.34
50282;BME280;36176;51.506;10.272;2023-04-19T11:13:59;100196.72;;;16.80;31.93
50282;BME280;36176;51.506;10.272;2023-04-19T11:16:30;100187.56;;;17.13;30.86
50282;BME280;36176;51.506;10.272;2023-04-19T11:19:20;100180.63;;;17.37;29.32
50282;BME280;36176;51.506;10.272;2023-04-19T11:21:47;100182.22;;;17.13;28.10
50282;BME280;36176;51.506;10.272;2023-04-19T11:24:14;100184.59;;;17.17;29.67
50282;BME280;36176;51.506;10.272;2023-04-19T11:26:44;100184.34;;;17.49;30.16
50282;BME280;36176;51.506;10.272;2023-04-19T11:29:11;100186.50;;;17.71;31.76
50282;BME280;36176;51.506;10.272;2023-04-19T11:31:38;100187.75;;;17.38;26.41
50282;BME280;36176;51.506;10.272;2023-04-19T11:34:05;100181.50;;;17.23;26.64
50282;BME280;36176;51.506;10.272;2023-04-19T11:36:32;100182.38;;;17.38;27.80
50282;BME280;36176;51.506;10.272;2023-04-19T11:39:05;100177.91;;;17.93;31.22
50282;BME280;36176;51.506;10.272;2023-04-19T11:41:41;100167.38;;;18.83;28.42
50282;BME280;36176;51.506;10.272;2023-04-19T11:44:15;100161.53;;;19.15;29.28
50282;BME280;36176;51.506;10.272;2023-04-19T11:46:42;100162.84;;;18.83;25.74
50282;BME280;36176;51.506;10.272;2023-04-19T11:49:26;100155.69;;;18.18;27.71
50282;BME280;36176;51.506;10.272;2023-04-19T11:51:54;100158.69;;;18.26;26.12
50282;BME280;36176;51.506;10.272;2023-04-19T11:54:22;100151.22;;;17.92;27.24
50282;BME280;36176;51.506;10.272;2023-04-19T11:56:56;100158.22;;;17.94;28.83
50282;BME280;36176;51.506;10.272;2023-04-19T11:59:23;100142.63;;;18.65;29.83
50282;BME280;36176;51.506;10.272;2023-04-19T12:01:50;100142.75;;;18.63;27.39
50282;BME280;36176;51.506;10.272;2023-04-19T12:04:17;100148.19;;;18.11;26.39
50282;BME280;36176;51.506;10.272;2023-04-19T12:06:54;100143.56;;;17.31;27.23
50282;BME280;36176;51.506;10.272;2023-04-19T12:09:21;100147.38;;;16.55;29.29
50282;BME280;36176;51.506;10.272;2023-04-19T12:11:49;100147.06;;;15.71;30.63
50282;BME280;36176;51.506;10.272;2023-04-19T12:14:17;100140.28;;;15.00;30.38
50282;BME280;36176;51.506;10.272;2023-04-19T12:16:45;100136.84;;;14.82;31.88
50282;BME280;36176;51.506;10.272;2023-04-19T12:19:16;100142.59;;;14.57;30.41
50282;BME280;36176;51.506;10.272;2023-04-19T12:21:45;100144.78;;;14.49;30.33
50282;BME280;36176;51.506;10.272;2023-04-19T12:24:15;100139.88;;;15.08;31.20
50282;BME280;36176;51.506;10.272;2023-04-19T12:26:56;100143.25;;;15.59;30.30
50282;BME280;36176;51.506;10.272;2023-04-19T12:29:23;100132.88;;;15.85;28.12
50282;BME280;36176;51.506;10.272;2023-04-19T12:31:50;100126.78;;;15.83;29.56
50282;BME280;36176;51.506;10.272;2023-04-19T12:34:17;100118.66;;;16.14;27.98
50282;BME280;36176;51.506;10.272;2023-04-19T12:36:44;100119.66;;;16.42;28.40
50282;BME280;36176;51.506;10.272;2023-04-19T12:39:11;100115.47;;;16.67;27.93
50282;BME280;36176;51.506;10.272;2023-04-19T12:41:39;100120.66;;;16.25;28.94
50282;BME280;36176;51.506;10.272;2023-04-19T12:44:06;100114.63;;;15.77;29.12
50282;BME280;36176;51.506;10.272;2023-04-19T12:46:32;100119.63;;;15.20;29.36
50282;BME280;36176;51.506;10.272;2023-04-19T12:48:59;100112.97;;;14.79;29.86
50282;BME280;36176;51.506;10.272;2023-04-19T12:51:27;100103.97;;;14.98;30.98
50282;BME280;36176;51.506;10.272;2023-04-19T12:53:54;100106.63;;;15.45;30.95
50282;BME280;36176;51.506;10.272;2023-04-19T12:56:23;100110.66;;;15.68;30.13
50282;BME280;36176;51.506;10.272;2023-04-19T12:58:50;100107.53;;;15.30;30.66